sensor_id;sensor_type;location;lat;lon;timestamp;pressure;altitude;pressure_sealevel;temperature;humidity
3968;BME280;9221;42.646;23.380;2023-05-19T00:00:41;94637.72;;;12.48;88.61
3968;BME280;9221;42.646;23.380;2023-05-19T00:03:09;94679.44;;;12.71;88.61
3968;BME280;9221;42.646;23.380;2023-05-19T00:05:36;94747.75;;;13.27;88.83
3968;BME280;9221;42.646;23.380;2023-05-19T00:08:06;94750.72;;;13.24;88.53
3968;BME280;9221;42.646;23.380;2023-05-19T00:10:34;94739.78;;;13.18;88.63
3968;BME280;9221;42.646;23.380;2023-05-19T00:13:00;94736.59;;;13.07;88.63
3968;BME280;9221;42.646;23.380;2023-05-19T00:15:26;94773.38;;;13.10;89.32
3968;BME280;9221;42.646;23.380;2023-05-19T00:17:51;94752.03;;;13.19;89.15
3968;BME280;9221;42.646;23.380;2023-05-19T00:20:19;94683.94;;;12.79;89.04
3968;BME280;9221;42.646;23.380;2023-05-19T00:22:44;94670.19;;;12.75;89.39
3968;BME280;9221;42.646;23.380;2023-05-19T00:25:10;94735.16;;;13.12;89.38
3968;BME280;9221;42.646;23.380;2023-05-19T00:27:35;94740.28;;;13.14;89.35
3968;BME280;9221;42.646;23.380;2023-05-19T00:30:01;94767.41;;;13.16;89.33
3968;BME280;9221;42.646;23.380;2023-05-19T00:32:26;94681.97;;;12.73;89.34
3968;BME280;9221;42.646;23.380;2023-05-19T00:34:51;94726.00;;;12.98;89.38
3968;BME280;9221;42.646;23.380;2023-05-19T00:37:17;94726.88;;;13.07;89.19
3968;BME280;9221;42.646;23.380;2023-05-19T00:39:42;94753.00;;;13.10;89.29
3968;BME280;9221;42.646;23.380;2023-05-19T00:42:08;94671.38;;;12.73;88.89
3968;BME280;9221;42.646;23.380;2023-05-19T00:44:36;94710.13;;;13.07;88.93
3968;BME280;9221;42.646;23.380;2023-05-19T00:47:04;94742.91;;;12.97;88.87
3968;BME280;9221;42.646;23.380;2023-05-19T00:49:29;94731.19;;;13.08;88.73
3968;BME280;9221;42.646;23.380;2023-05-19T00:51:55;94658.13;;;12.64;88.85
3968;BME280;9221;42.646;23.380;2023-05-19T00:54:21;94662.22;;;12.67;89.20
3968;BME280;9221;42.646;23.380;2023-05-19T00:56:46;94659.91;;;12.64;88.76
3968;BME280;9221;42.646;23.380;2023-05-19T00:59:14;94695.41;;;12.88;88.65
3968;BME280;9221;42.646;23.380;2023-05-19T01:01:39;94743.38;;;13.01;88.85
3968;BME280;9221;42.646;23.380;2023-05-19T01:04:05;94654.00;;;12.70;88.79
3968;BME280;9221;42.646;23.380;2023-05-19T01:06:34;94684.16;;;12.94;88.72
3968;BME280;9221;42.646;23.380;2023-05-19T01:09:02;94715.63;;;13.13;88.45
3968;BME280;9221;42.646;23.380;2023-05-19T01:11:27;94725.88;;;13.08;88.62
3968;BME280;9221;42.646;23.380;2023-05-19T01:13:53;94725.22;;;13.23;88.50
3968;BME280;9221;42.646;23.380;2023-05-19T01:16:31;94729.53;;;13.15;88.17
3968;BME280;9221;42.646;23.380;2023-05-19T01:24:28;94736.13;;;13.11;88.43
3968;BME280;9221;42.646;23.380;2023-05-19T01:28:04;94731.81;;;13.02;88.78
3968;BME280;9221;42.646;23.380;2023-05-19T01:32:48;94708.75;;;12.86;89.43
3968;BME280;9221;42.646;23.380;2023-05-19T01:35:15;94690.53;;;12.75;89.12
3968;BME280;9221;42.646;23.380;2023-05-19T01:37:41;94739.19;;;12.82;89.39
3968;BME280;9221;42.646;23.380;2023-05-19T01:40:07;94752.25;;;12.83;89.70
3968;BME280;9221;42.646;23.380;2023-05-19T01:42:33;94667.81;;;12.47;89.67
3968;BME280;9221;42.646;23.380;2023-05-19T01:45:03;94731.94;;;12.84;90.06
3968;BME280;9221;42.646;23.380;2023-05-19T01:47:33;94753.50;;;12.63;90.67
3968;BME280;9221;42.646;23.380;2023-05-19T01:49:59;94728.41;;;12.75;90.64
3968;BME280;9221;42.646;23.380;2023-05-19T01:52:25;94674.72;;;12.40;90.64
3968;BME280;9221;42.646;23.380;2023-05-19T01:54:50;94722.13;;;12.76;90.84
3968;BME280;9221;42.646;23.380;2023-05-19T02:00:51;94733.28;;;12.88;90.93
3968;BME280;9221;42.646;23.380;2023-05-19T02:06:07;94708.16;;;12.49;90.81
3968;BME280;9221;42.646;23.380;2023-05-19T02:08:59;94744.00;;;12.78;90.67
3968;BME280;9221;42.646;23.380;2023-05-19T02:11:35;94717.13;;;12.57;91.07
3968;BME280;9221;42.646;23.380;2023-05-19T02:14:07;94680.31;;;12.29;91.18
3968;BME280;9221;42.646;23.380;2023-05-19T02:16:35;94678.38;;;12.05;91.64
3968;BME280;9221;42.646;23.380;2023-05-19T02:19:01;94738.28;;;12.57;92.18
3968;BME280;9221;42.646;23.380;2023-05-19T02:21:26;94680.56;;;12.17;92.15
3968;BME280;9221;42.646;23.380;2023-05-19T02:23:52;94736.56;;;12.47;92.33
3968;BME280;9221;42.646;23.380;2023-05-19T02:26:17;94656.25;;;11.88;92.23
3968;BME280;9221;42.646;23.380;2023-05-19T02:28:42;94662.31;;;11.98;92.65
3968;BME280;9221;42.646;23.380;2023-05-19T02:31:08;94747.28;;;12.38;92.54
3968;BME280;9221;42.646;23.380;2023-05-19T02:33:34;94683.38;;;11.90;92.90
3968;BME280;9221;42.646;23.380;2023-05-19T02:36:00;94721.19;;;12.16;92.77
3968;BME280;9221;42.646;23.380;2023-05-19T02:38:26;94669.13;;;11.82;93.42
3968;BME280;9221;42.646;23.380;2023-05-19T02:40:51;94680.53;;;11.83;93.71
3968;BME280;9221;42.646;23.380;2023-05-19T02:43:17;94618.31;;;11.36;93.98
3968;BME280;9221;42.646;23.380;2023-05-19T02:45:43;94733.72;;;12.06;94.28
3968;BME280;9221;42.646;23.380;2023-05-19T02:48:08;94787.81;;;12.20;94.32
3968;BME280;9221;42.646;23.380;2023-05-19T02:50:34;94729.75;;;11.84;93.69
3968;BME280;9221;42.646;23.380;2023-05-19T02:52:59;94680.63;;;11.73;93.94
3968;BME280;9221;42.646;23.380;2023-05-19T02:55:25;94753.63;;;12.18;94.04
3968;BME280;9221;42.646;23.380;2023-05-19T02:57:50;94693.25;;;11.88;93.85
3968;BME280;9221;42.646;23.380;2023-05-19T03:00:16;94753.00;;;12.25;93.93
3968;BME280;9221;42.646;23.380;2023-05-19T03:02:41;94777.31;;;12.28;93.70
3968;BME280;9221;42.646;23.380;2023-05-19T03:05:08;94670.72;;;11.75;93.88
3968;BME280;9221;42.646;23.380;2023-05-19T03:07:34;94678.16;;;11.72;93.77
3968;BME280;9221;42.646;23.380;2023-05-19T03:10:00;94699.69;;;11.85;94.08
3968;BME280;9221;42.646;23.380;2023-05-19T03:12:28;94693.88;;;11.81;93.85
3968;BME280;9221;42.646;23.380;2023-05-19T03:14:53;94755.56;;;12.16;93.74
3968;BME280;9221;42.646;23.380;2023-05-19T03:17:19;94830.81;;;12.04;93.82
3968;BME280;9221;42.646;23.380;2023-05-19T03:19:44;94750.00;;;12.19;93.70
3968;BME280;9221;42.646;23.380;2023-05-19T03:22:10;94714.75;;;11.93;93.94
3968;BME280;9221;42.646;23.380;2023-05-19T03:24:35;94696.84;;;11.78;94.14
3968;BME280;9221;42.646;23.380;2023-05-19T03:27:01;94766.34;;;12.23;94.23
3968;BME280;9221;42.646;23.380;2023-05-19T03:29:26;94740.81;;;11.88;94.53
3968;BME280;9221;42.646;23.380;2023-05-19T03:31:52;94753.28;;;12.22;94.31
3968;BME280;9221;42.646;23.380;2023-05-19T03:34:17;94716.66;;;12.00;94.29
3968;BME280;9221;42.646;23.380;2023-05-19T03:36:43;94787.66;;;12.22;94.53
3968;BME280;9221;42.646;23.380;2023-05-19T03:39:09;94753.19;;;12.31;94.42
3968;BME280;9221;42.646;23.380;2023-05-19T03:41:35;94762.63;;;12.34;94.29
3968;BME280;9221;42.646;23.380;2023-05-19T03:44:00;94723.66;;;12.10;94.08
3968;BME280;9221;42.646;23.380;2023-05-19T03:46:26;94756.88;;;12.39;93.93
3968;BME280;9221;42.646;23.380;2023-05-19T03:48:51;94732.91;;;12.06;93.75
3968;BME280;9221;42.646;23.380;2023-05-19T03:51:17;94768.63;;;12.44;93.81
3968;BME280;9221;42.646;23.380;2023-05-19T03:53:42;94790.13;;;12.41;93.51
3968;BME280;9221;42.646;23.380;2023-05-19T03:56:08;94716.94;;;12.15;93.48
3968;BME280;9221;42.646;23.380;2023-05-19T03:58:35;94798.59;;;12.53;92.98
3968;BME280;9221;42.646;23.380;2023-05-19T04:01:03;94811.41;;;12.66;92.94
3968;BME280;9221;42.646;23.380;2023-05-19T04:03:28;94771.75;;;12.74;92.61
3968;BME280;9221;42.646;23.380;2023-05-19T04:05:54;94709.44;;;12.37;92.30
3968;BME280;9221;42.646;23.380;2023-05-19T04:08:19;94753.84;;;12.68;91.88
3968;BME280;9221;42.646;23.380;2023-05-19T04:10:45;94726.31;;;12.44;92.35
3968;BME280;9221;42.646;23.380;2023-05-19T04:13:10;94770.44;;;12.78;92.20
3968;BME280;9221;42.646;23.380;2023-05-19T04:15:36;94811.53;;;12.91;92.00
3968;BME280;9221;42.646;23.380;2023-05-19T04:18:01;94774.84;;;13.04;91.28
3968;BME280;9221;42.646;23.380;2023-05-19T04:20:26;94756.59;;;12.93;90.65
3968;BME280;9221;42.646;23.380;2023-05-19T04:22:52;94716.88;;;12.84;90.16
3968;BME280;9221;42.646;23.380;2023-05-19T04:25:17;94769.59;;;13.20;89.66
3968;BME280;9221;42.646;23.380;2023-05-19T04:27:44;94773.41;;;13.26;89.33
3968;BME280;9221;42.646;23.380;2023-05-19T04:30:10;94743.38;;;13.01;89.30
3968;BME280;9221;42.646;23.380;2023-05-19T04:32:36;94794.84;;;13.41;89.69
3968;BME280;9221;42.646;23.380;2023-05-19T04:35:02;94793.88;;;13.59;88.92
3968;BME280;9221;42.646;23.380;2023-05-19T04:37:28;94728.25;;;13.36;87.83
3968;BME280;9221;42.646;23.380;2023-05-19T04:39:54;94741.53;;;13.52;87.56
3968;BME280;9221;42.646;23.380;2023-05-19T04:42:19;94793.22;;;13.90;86.91
3968;BME280;9221;42.646;23.380;2023-05-19T04:44:45;94803.19;;;13.87;86.72
3968;BME280;9221;42.646;23.380;2023-05-19T04:47:14;94792.88;;;14.01;86.58
3968;BME280;9221;42.646;23.380;2023-05-19T04:49:39;94787.91;;;13.98;86.47
3968;BME280;9221;42.646;23.380;2023-05-19T04:52:09;94795.38;;;14.19;85.97
3968;BME280;9221;42.646;23.380;2023-05-19T04:54:36;94788.91;;;14.05;85.67
3968;BME280;9221;42.646;23.380;2023-05-19T04:57:02;94806.63;;;14.04;86.04
3968;BME280;9221;42.646;23.380;2023-05-19T04:59:28;94819.25;;;13.94;86.34
3968;BME280;9221;42.646;23.380;2023-05-19T05:01:53;94800.53;;;13.96;86.13
3968;BME280;9221;42.646;23.380;2023-05-19T05:04:20;94807.63;;;14.20;85.51
3968;BME280;9221;42.646;23.380;2023-05-19T05:06:46;94836.31;;;14.25;85.57
3968;BME280;9221;42.646;23.380;2023-05-19T05:09:13;94809.09;;;14.22;85.25
3968;BME280;9221;42.646;23.380;2023-05-19T05:11:39;94810.44;;;14.18;85.88
3968;BME280;9221;42.646;23.380;2023-05-19T05:14:05;94810.09;;;14.05;85.45
3968;BME280;9221;42.646;23.380;2023-05-19T05:16:31;94804.31;;;14.01;85.12
3968;BME280;9221;42.646;23.380;2023-05-19T05:18:58;94762.72;;;13.85;85.58
3968;BME280;9221;42.646;23.380;2023-05-19T05:21:24;94744.34;;;13.76;85.69
3968;BME280;9221;42.646;23.380;2023-05-19T05:23:50;94806.47;;;14.22;85.06
3968;BME280;9221;42.646;23.380;2023-05-19T05:26:17;94796.69;;;14.31;84.90
3968;BME280;9221;42.646;23.380;2023-05-19T05:28:49;94843.41;;;14.49;84.53
3968;BME280;9221;42.646;23.380;2023-05-19T05:31:14;94837.78;;;14.52;84.12
3968;BME280;9221;42.646;23.380;2023-05-19T05:33:41;94806.56;;;14.54;83.73
3968;BME280;9221;42.646;23.380;2023-05-19T05:36:06;94810.53;;;14.58;83.26
3968;BME280;9221;42.646;23.380;2023-05-19T05:38:32;94803.91;;;14.54;83.73
3968;BME280;9221;42.646;23.380;2023-05-19T05:40:57;94792.81;;;14.67;83.50
3968;BME280;9221;42.646;23.380;2023-05-19T05:43:23;94802.03;;;14.87;82.63
3968;BME280;9221;42.646;23.380;2023-05-19T05:45:48;94796.06;;;14.85;82.28
3968;BME280;9221;42.646;23.380;2023-05-19T05:48:14;94809.31;;;14.94;82.15
3968;BME280;9221;42.646;23.380;2023-05-19T05:50:42;94789.78;;;14.78;81.83
3968;BME280;9221;42.646;23.380;2023-05-19T05:53:08;94823.59;;;15.01;81.27
3968;BME280;9221;42.646;23.380;2023-05-19T05:55:34;94824.78;;;15.30;81.52
3968;BME280;9221;42.646;23.380;2023-05-19T05:57:59;94789.03;;;15.09;81.08
3968;BME280;9221;42.646;23.380;2023-05-19T06:00:26;94799.69;;;15.32;80.16
3968;BME280;9221;42.646;23.380;2023-05-19T06:02:52;94831.31;;;15.50;79.19
3968;BME280;9221;42.646;23.380;2023-05-19T06:05:18;94788.97;;;15.17;79.72
3968;BME280;9221;42.646;23.380;2023-05-19T06:07:43;94823.66;;;15.55;79.27
3968;BME280;9221;42.646;23.380;2023-05-19T06:10:10;94840.56;;;15.63;79.46
3968;BME280;9221;42.646;23.380;2023-05-19T06:12:35;94859.41;;;15.84;79.21
3968;BME280;9221;42.646;23.380;2023-05-19T06:15:05;94833.16;;;15.73;78.57
3968;BME280;9221;42.646;23.380;2023-05-19T06:17:30;94775.56;;;15.65;78.86
3968;BME280;9221;42.646;23.380;2023-05-19T06:19:58;94789.09;;;15.55;78.69
3968;BME280;9221;42.646;23.380;2023-05-19T06:22:23;94775.69;;;15.72;78.83
3968;BME280;9221;42.646;23.380;2023-05-19T06:24:49;94775.31;;;15.83;78.20
3968;BME280;9221;42.646;23.380;2023-05-19T06:27:14;94838.81;;;16.24;76.77
3968;BME280;9221;42.646;23.380;2023-05-19T06:29:40;94713.06;;;15.46;76.35
3968;BME280;9221;42.646;23.380;2023-05-19T06:32:05;94774.88;;;15.95;76.49
3968;BME280;9221;42.646;23.380;2023-05-19T06:34:30;94850.47;;;16.23;76.28
3968;BME280;9221;42.646;23.380;2023-05-19T06:36:56;94768.00;;;16.00;76.03
3968;BME280;9221;42.646;23.380;2023-05-19T06:39:21;94836.94;;;16.48;75.15
3968;BME280;9221;42.646;23.380;2023-05-19T06:41:47;94823.28;;;16.51;74.71
3968;BME280;9221;42.646;23.380;2023-05-19T06:44:12;94806.13;;;16.54;74.30
3968;BME280;9221;42.646;23.380;2023-05-19T06:46:38;94780.31;;;16.39;73.47
3968;BME280;9221;42.646;23.380;2023-05-19T06:49:03;94841.53;;;16.92;72.56
3968;BME280;9221;42.646;23.380;2023-05-19T06:51:28;94833.91;;;16.89;71.94
3968;BME280;9221;42.646;23.380;2023-05-19T06:53:54;94849.81;;;16.98;71.58
3968;BME280;9221;42.646;23.380;2023-05-19T06:56:20;94758.25;;;16.46;71.40
3968;BME280;9221;42.646;23.380;2023-05-19T06:58:45;94849.25;;;17.17;71.42
3968;BME280;9221;42.646;23.380;2023-05-19T07:01:11;94797.22;;;16.77;70.83
3968;BME280;9221;42.646;23.380;2023-05-19T07:03:36;94849.06;;;17.04;70.81
3968;BME280;9221;42.646;23.380;2023-05-19T07:06:01;94858.25;;;17.16;70.70
3968;BME280;9221;42.646;23.380;2023-05-19T07:08:27;94802.19;;;16.95;70.97
3968;BME280;9221;42.646;23.380;2023-05-19T07:10:52;94794.97;;;17.03;70.38
3968;BME280;9221;42.646;23.380;2023-05-19T07:13:19;94887.47;;;17.54;70.02
3968;BME280;9221;42.646;23.380;2023-05-19T07:15:45;94856.41;;;17.83;69.24
3968;BME280;9221;42.646;23.380;2023-05-19T07:18:11;94801.13;;;17.55;68.65
3968;BME280;9221;42.646;23.380;2023-05-19T07:20:37;94861.00;;;18.11;68.35
3968;BME280;9221;42.646;23.380;2023-05-19T07:23:02;94802.56;;;17.95;67.48
3968;BME280;9221;42.646;23.380;2023-05-19T07:25:29;94946.69;;;18.16;67.00
3968;BME280;9221;42.646;23.380;2023-05-19T07:27:55;94862.41;;;18.29;67.20
3968;BME280;9221;42.646;23.380;2023-05-19T07:30:21;94807.00;;;18.09;66.62
3968;BME280;9221;42.646;23.380;2023-05-19T07:32:46;94842.44;;;18.46;66.48
3968;BME280;9221;42.646;23.380;2023-05-19T07:35:12;94873.31;;;18.77;66.15
3968;BME280;9221;42.646;23.380;2023-05-19T07:37:37;94860.78;;;18.77;67.04
3968;BME280;9221;42.646;23.380;2023-05-19T07:40:04;94812.88;;;18.48;65.63
3968;BME280;9221;42.646;23.380;2023-05-19T07:42:30;94899.19;;;18.98;65.22
3968;BME280;9221;42.646;23.380;2023-05-19T07:44:56;94852.13;;;19.04;64.81
3968;BME280;9221;42.646;23.380;2023-05-19T07:47:21;94805.38;;;18.93;64.66
3968;BME280;9221;42.646;23.380;2023-05-19T07:49:46;94834.38;;;18.89;64.47
3968;BME280;9221;42.646;23.380;2023-05-19T07:52:12;94846.53;;;18.70;64.19
3968;BME280;9221;42.646;23.380;2023-05-19T07:54:37;94845.94;;;18.75;65.00
3968;BME280;9221;42.646;23.380;2023-05-19T07:57:03;94852.13;;;18.75;65.42
3968;BME280;9221;42.646;23.380;2023-05-19T07:59:28;94865.53;;;18.82;66.42
3968;BME280;9221;42.646;23.380;2023-05-19T08:01:54;94869.78;;;18.76;64.27
3968;BME280;9221;42.646;23.380;2023-05-19T08:04:19;94848.91;;;18.87;64.49
3968;BME280;9221;42.646;23.380;2023-05-19T08:06:45;94858.44;;;18.89;63.34
3968;BME280;9221;42.646;23.380;2023-05-19T08:09:10;94812.00;;;18.97;63.38
3968;BME280;9221;42.646;23.380;2023-05-19T08:11:36;94827.78;;;19.27;63.73
3968;BME280;9221;42.646;23.380;2023-05-19T08:14:01;94819.69;;;19.55;64.16
3968;BME280;9221;42.646;23.380;2023-05-19T08:16:27;94845.38;;;20.05;63.48
3968;BME280;9221;42.646;23.380;2023-05-19T08:18:52;94804.63;;;20.09;61.30
3968;BME280;9221;42.646;23.380;2023-05-19T08:21:19;94836.78;;;20.43;61.03
3968;BME280;9221;42.646;23.380;2023-05-19T08:23:44;94889.19;;;20.79;60.91
3968;BME280;9221;42.646;23.380;2023-05-19T08:26:09;94861.09;;;21.02;59.50
3968;BME280;9221;42.646;23.380;2023-05-19T08:28:35;94876.72;;;21.32;58.47
3968;BME280;9221;42.646;23.380;2023-05-19T08:31:00;94790.94;;;21.18;58.13
3968;BME280;9221;42.646;23.380;2023-05-19T08:33:26;94852.56;;;21.45;57.15
3968;BME280;9221;42.646;23.380;2023-05-19T08:35:51;94805.34;;;21.24;57.82
3968;BME280;9221;42.646;23.380;2023-05-19T08:38:16;94876.69;;;21.58;57.77
3968;BME280;9221;42.646;23.380;2023-05-19T08:40:45;94849.19;;;21.70;56.38
3968;BME280;9221;42.646;23.380;2023-05-19T08:43:11;94848.31;;;22.21;56.78
3968;BME280;9221;42.646;23.380;2023-05-19T08:45:39;94859.66;;;22.55;57.04
3968;BME280;9221;42.646;23.380;2023-05-19T08:48:07;94862.03;;;22.70;55.58
3968;BME280;9221;42.646;23.380;2023-05-19T08:50:35;94756.06;;;22.27;54.80
3968;BME280;9221;42.646;23.380;2023-05-19T08:53:11;94854.44;;;22.28;54.64
3968;BME280;9221;42.646;23.380;2023-05-19T08:58:29;94831.69;;;22.38;54.61
3968;BME280;9221;42.646;23.380;2023-05-19T09:00:55;94868.69;;;22.36;55.30
3968;BME280;9221;42.646;23.380;2023-05-19T09:03:22;94850.09;;;22.59;55.05
3968;BME280;9221;42.646;23.380;2023-05-19T09:05:50;94847.50;;;22.78;54.51
3968;BME280;9221;42.646;23.380;2023-05-19T09:08:16;94860.94;;;22.78;54.34
3968;BME280;9221;42.646;23.380;2023-05-19T09:10:42;94816.00;;;22.60;54.57
3968;BME280;9221;42.646;23.380;2023-05-19T09:13:08;94838.78;;;23.26;54.13
3968;BME280;9221;42.646;23.380;2023-05-19T09:15:33;94829.50;;;23.22;53.82
3968;BME280;9221;42.646;23.380;2023-05-19T09:20:36;94831.69;;;22.88;53.95
3968;BME280;9221;42.646;23.380;2023-05-19T09:23:02;94823.06;;;23.05;52.44
3968;BME280;9221;42.646;23.380;2023-05-19T09:25:27;94888.41;;;23.30;51.88
3968;BME280;9221;42.646;23.380;2023-05-19T09:27:53;94857.25;;;23.78;53.05
3968;BME280;9221;42.646;23.380;2023-05-19T09:30:19;94851.16;;;24.02;50.30
3968;BME280;9221;42.646;23.380;2023-05-19T09:32:45;94833.41;;;23.63;50.80
3968;BME280;9221;42.646;23.380;2023-05-19T09:35:11;94818.59;;;23.54;49.63
3968;BME280;9221;42.646;23.380;2023-05-19T09:37:40;94829.00;;;23.07;51.61
3968;BME280;9221;42.646;23.380;2023-05-19T09:40:09;94860.28;;;23.26;52.07
3968;BME280;9221;42.646;23.380;2023-05-19T09:42:38;94831.38;;;23.59;51.61
3968;BME280;9221;42.646;23.380;2023-05-19T09:45:04;94840.53;;;24.07;51.02
3968;BME280;9221;42.646;23.380;2023-05-19T09:47:34;94813.25;;;24.15;50.50
3968;BME280;9221;42.646;23.380;2023-05-19T09:50:03;94855.81;;;24.55;49.09
3968;BME280;9221;42.646;23.380;2023-05-19T09:52:29;94814.16;;;23.78;50.65
3968;BME280;9221;42.646;23.380;2023-05-19T09:54:55;94755.22;;;23.70;50.53
3968;BME280;9221;42.646;23.380;2023-05-19T09:57:24;94853.34;;;24.23;51.02
3968;BME280;9221;42.646;23.380;2023-05-19T09:59:53;94805.44;;;23.46;49.54
3968;BME280;9221;42.646;23.380;2023-05-19T10:02:21;94816.78;;;23.66;48.66
3968;BME280;9221;42.646;23.380;2023-05-19T10:04:51;94808.72;;;23.48;50.98
3968;BME280;9221;42.646;23.380;2023-05-19T10:07:18;94857.03;;;23.61;49.40
3968;BME280;9221;42.646;23.380;2023-05-19T10:09:43;94794.84;;;23.51;48.18
3968;BME280;9221;42.646;23.380;2023-05-19T10:12:11;94752.94;;;22.99;48.03
3968;BME280;9221;42.646;23.380;2023-05-19T10:14:37;94771.50;;;23.26;49.84
3968;BME280;9221;42.646;23.380;2023-05-19T10:17:03;94840.97;;;23.85;47.58
3968;BME280;9221;42.646;23.380;2023-05-19T10:19:28;94750.38;;;23.60;47.73
3968;BME280;9221;42.646;23.380;2023-05-19T10:21:54;94775.16;;;23.81;49.88
3968;BME280;9221;42.646;23.380;2023-05-19T10:24:20;94745.31;;;24.25;46.80
3968;BME280;9221;42.646;23.380;2023-05-19T10:29:21;94799.56;;;25.18;47.15
3968;BME280;9221;42.646;23.380;2023-05-19T10:31:49;94762.16;;;25.62;45.84
3968;BME280;9221;42.646;23.380;2023-05-19T10:39:51;94782.31;;;25.72;43.86
3968;BME280;9221;42.646;23.380;2023-05-19T10:42:37;94747.81;;;25.33;46.02
3968;BME280;9221;42.646;23.380;2023-05-19T10:45:17;94786.72;;;26.18;42.03
3968;BME280;9221;42.646;23.380;2023-05-19T10:47:44;94769.59;;;25.43;44.09
3968;BME280;9221;42.646;23.380;2023-05-19T10:50:10;94723.00;;;25.48;43.67
3968;BME280;9221;42.646;23.380;2023-05-19T10:52:37;94767.94;;;25.83;43.08
3968;BME280;9221;42.646;23.380;2023-05-19T10:55:03;94721.34;;;25.76;42.36
3968;BME280;9221;42.646;23.380;2023-05-19T10:57:29;94733.63;;;25.14;42.97
3968;BME280;9221;42.646;23.380;2023-05-19T10:59:56;94765.50;;;25.41;44.31
3968;BME280;9221;42.646;23.380;2023-05-19T11:05:11;94721.44;;;24.99;42.64
3968;BME280;9221;42.646;23.380;2023-05-19T11:07:42;94767.00;;;25.89;41.17
3968;BME280;9221;42.646;23.380;2023-05-19T11:10:09;94717.66;;;25.82;41.57
3968;BME280;9221;42.646;23.380;2023-05-19T11:12:43;94721.03;;;26.18;40.10
3968;BME280;9221;42.646;23.380;2023-05-19T11:15:15;94784.94;;;26.24;39.36
3968;BME280;9221;42.646;23.380;2023-05-19T11:17:43;94714.03;;;25.59;40.25
3968;BME280;9221;42.646;23.380;2023-05-19T11:20:28;94761.75;;;25.99;39.92
3968;BME280;9221;42.646;23.380;2023-05-19T11:26:00;94758.41;;;26.38;39.09
3968;BME280;9221;42.646;23.380;2023-05-19T11:28:26;94770.16;;;25.57;40.79
3968;BME280;9221;42.646;23.380;2023-05-19T11:30:55;94780.31;;;24.55;41.57
3968;BME280;9221;42.646;23.380;2023-05-19T11:33:22;94708.41;;;23.22;43.75
3968;BME280;9221;42.646;23.380;2023-05-19T11:35:52;94772.06;;;23.10;47.19
3968;BME280;9221;42.646;23.380;2023-05-19T11:38:19;94768.16;;;23.31;48.80
3968;BME280;9221;42.646;23.380;2023-05-19T11:40:47;94777.91;;;23.44;49.35
3968;BME280;9221;42.646;23.380;2023-05-19T11:43:14;94729.75;;;22.61;58.63
3968;BME280;9221;42.646;23.380;2023-05-19T11:45:41;94812.19;;;21.72;61.09
3968;BME280;9221;42.646;23.380;2023-05-19T11:48:10;94830.16;;;21.06;61.29
3968;BME280;9221;42.646;23.380;2023-05-19T11:50:36;94748.59;;;20.01;64.71
3968;BME280;9221;42.646;23.380;2023-05-19T11:53:04;94790.88;;;19.64;69.91
3968;BME280;9221;42.646;23.380;2023-05-19T11:55:30;94746.94;;;18.83;73.55
3968;BME280;9221;42.646;23.380;2023-05-19T11:58:00;94737.09;;;18.20;77.25
3968;BME280;9221;42.646;23.380;2023-05-19T12:00:33;94828.91;;;18.48;79.32
3968;BME280;9221;42.646;23.380;2023-05-19T12:03:01;94789.47;;;18.00;76.47
3968;BME280;9221;42.646;23.380;2023-05-19T12:05:27;94849.28;;;17.90;78.27
3968;BME280;9221;42.646;23.380;2023-05-19T12:07:53;94862.66;;;17.09;77.79
3968;BME280;9221;42.646;23.380;2023-05-19T12:10:37;94772.38;;;16.16;74.78
3968;BME280;9221;42.646;23.380;2023-05-19T12:13:04;94849.31;;;16.79;72.91
3968;BME280;9221;42.646;23.380;2023-05-19T12:15:30;94817.75;;;16.38;74.96
3968;BME280;9221;42.646;23.380;2023-05-19T12:17:57;94838.06;;;16.69;76.10
3968;BME280;9221;42.646;23.380;2023-05-19T12:20:24;94837.06;;;16.70;75.75
3968;BME280;9221;42.646;23.380;2023-05-19T12:22:50;94802.16;;;16.65;76.73
3968;BME280;9221;42.646;23.380;2023-05-19T12:25:17;94880.56;;;17.00;77.12
3968;BME280;9221;42.646;23.380;2023-05-19T12:27:43;94827.94;;;17.17;77.51
3968;BME280;9221;42.646;23.380;2023-05-19T12:30:09;94778.38;;;16.78;77.54
3968;BME280;9221;42.646;23.380;2023-05-19T12:32:35;94770.41;;;16.78;78.35
3968;BME280;9221;42.646;23.380;2023-05-19T12:35:02;94875.72;;;17.34;77.07
3968;BME280;9221;42.646;23.380;2023-05-19T12:37:32;94820.25;;;17.44;75.81
3968;BME280;9221;42.646;23.380;2023-05-19T12:40:00;94834.03;;;17.84;75.77
3968;BME280;9221;42.646;23.380;2023-05-19T12:42:26;94867.50;;;18.02;75.06
3968;BME280;9221;42.646;23.380;2023-05-19T12:44:56;94763.78;;;17.77;72.48
3968;BME280;9221;42.646;23.380;2023-05-19T12:47:29;94825.03;;;18.07;70.04
3968;BME280;9221;42.646;23.380;2023-05-19T12:50:06;94832.69;;;18.32;71.48
3968;BME280;9221;42.646;23.380;2023-05-19T12:52:34;94775.44;;;18.41;69.62
3968;BME280;9221;42.646;23.380;2023-05-19T12:55:05;94778.50;;;18.66;69.46
3968;BME280;9221;42.646;23.380;2023-05-19T12:57:39;94672.66;;;18.30;67.70
3968;BME280;9221;42.646;23.380;2023-05-19T13:00:07;94721.75;;;18.99;65.53
3968;BME280;9221;42.646;23.380;2023-05-19T13:02:58;94759.44;;;19.73;62.26
3968;BME280;9221;42.646;23.380;2023-05-19T13:05:25;94779.50;;;20.37;61.09
3968;BME280;9221;42.646;23.380;2023-05-19T13:10:20;94765.84;;;20.86;54.20
3968;BME280;9221;42.646;23.380;2023-05-19T13:12:45;94725.84;;;20.84;53.66
3968;BME280;9221;42.646;23.380;2023-05-19T13:15:10;94782.44;;;21.21;52.39
3968;BME280;9221;42.646;23.380;2023-05-19T13:17:36;94746.25;;;21.44;52.78
3968;BME280;9221;42.646;23.380;2023-05-19T13:20:02;94769.34;;;21.52;49.40
3968;BME280;9221;42.646;23.380;2023-05-19T13:22:28;94764.59;;;21.47;47.97
3968;BME280;9221;42.646;23.380;2023-05-19T13:24:54;94724.50;;;21.20;48.54
3968;BME280;9221;42.646;23.380;2023-05-19T13:27:23;94775.00;;;21.82;48.00
3968;BME280;9221;42.646;23.380;2023-05-19T13:29:49;94715.84;;;21.95;48.19
3968;BME280;9221;42.646;23.380;2023-05-19T13:32:14;94717.94;;;22.19;47.22
3968;BME280;9221;42.646;23.380;2023-05-19T13:34:40;94765.00;;;22.72;47.59
3968;BME280;9221;42.646;23.380;2023-05-19T13:37:05;94697.25;;;22.19;47.57
3968;BME280;9221;42.646;23.380;2023-05-19T13:39:33;94721.59;;;22.24;45.98
3968;BME280;9221;42.646;23.380;2023-05-19T13:41:59;94755.31;;;22.71;45.44
3968;BME280;9221;42.646;23.380;2023-05-19T13:44:24;94730.16;;;22.65;44.77